Time;durP1;ratioP1;P1;durP2;ratioP2;P2;SDS_P1;SDS_P2;PMS_P1;PMS_P2;Temp;Humidity;BMP_temperature;BMP_pressure;BME280_temperature;BME280_humidity;BME280_pressure;Samples;Min_cycle;Max_cycle;Signal;HPM_P1;HPM_P2
2022/05/13 00:02:59;;;;;;;15.02;7.28;;;;;;;;;;6262033;28;19947;-58
2022/05/13 00:06:00;;;;;;;12.82;7.07;;;;;;;;;;6264798;28;20084;-55
2022/05/13 00:09:00;;;;;;;15.82;8.77;;;;;;;;;;6262900;28;20049;-52
2022/05/13 00:12:01;;;;;;;14.70;7.82;;;;;;;;;;6268296;28;20057;-60
2022/05/13 00:15:06;;;;;;;16.77;7.47;;;;;;;;;;6263372;28;20567;-61
2022/05/13 00:18:07;;;;;;;18.50;8.15;;;;;;;;;;6260584;28;20107;-61
2022/05/13 00:21:09;;;;;;;15.70;7.75;;;;;;;;;;6264705;28;20486;-61
2022/05/13 00:24:10;;;;;;;;;;;;;;;;;;6258178;28;20122;-59
2022/05/13 00:27:11;;;;;;;14.98;6.53;;;;;;;;;;6262592;28;20334;-58
2022/05/13 00:30:12;;;;;;;16.85;7.70;;;;;;;;;;6267206;28;20117;-58
2022/05/13 00:33:13;;;;;;;15.73;7.07;;;;;;;;;;6261535;28;20052;-60
2022/05/13 00:36:14;;;;;;;12.15;6.95;;;;;;;;;;6263643;28;20157;-60
2022/05/13 00:39:15;;;;;;;18.35;7.30;;;;;;;;;;6260464;28;20052;-60
2022/05/13 00:42:17;;;;;;;15.77;7.25;;;;;;;;;;6258304;28;20135;-61
2022/05/13 00:45:18;;;;;;;16.95;7.80;;;;;;;;;;6263490;28;20179;-60
2022/05/13 00:48:18;;;;;;;12.13;6.93;;;;;;;;;;6260085;28;20435;-59
2022/05/13 00:51:32;;;;;;;15.32;7.97;;;;;;;;;;6256633;28;20075;-59
2022/05/13 00:54:34;;;;;;;16.20;7.47;;;;;;;;;;6259257;28;20055;-60
2022/05/13 00:57:35;;;;;;;14.10;7.15;;;;;;;;;;6263851;28;20523;-59
2022/05/13 01:00:36;;;;;;;15.03;7.93;;;;;;;;;;6266386;28;20045;-60
2022/05/13 01:03:38;;;;;;;14.80;7.57;;;;;;;;;;6260546;28;20120;-59
2022/05/13 01:06:43;;;;;;;18.10;7.60;;;;;;;;;;6264046;28;20076;-60
2022/05/13 01:09:56;;;;;;;17.48;7.30;;;;;;;;;;6259289;28;20052;-60
2022/05/13 01:12:58;;;;;;;15.13;7.28;;;;;;;;;;6263251;28;20049;-59
2022/05/13 01:15:59;;;;;;;12.55;7.47;;;;;;;;;;6266043;28;20075;-60
2022/05/13 01:19:01;;;;;;;15.40;7.95;;;;;;;;;;6260064;28;20057;-60
2022/05/13 01:22:15;;;;;;;12.65;7.85;;;;;;;;;;6260186;28;20164;-59
2022/05/13 01:25:19;;;;;;;13.85;7.65;;;;;;;;;;6257449;28;20610;-60
2022/05/13 01:28:26;;;;;;;18.67;8.40;;;;;;;;;;6255505;28;20049;-59
2022/05/13 01:31:30;;;;;;;17.85;8.55;;;;;;;;;;6260554;28;20791;-59
2022/05/13 01:34:31;;;;;;;19.05;8.35;;;;;;;;;;6257802;28;20461;-59
2022/05/13 01:37:33;;;;;;;18.63;7.90;;;;;;;;;;6261623;28;20138;-60
2022/05/13 01:40:33;;;;;;;16.08;7.50;;;;;;;;;;6259284;28;20059;-59
2022/05/13 01:43:35;;;;;;;15.25;7.55;;;;;;;;;;6262471;28;20088;-60
2022/05/13 01:46:36;;;;;;;14.10;7.35;;;;;;;;;;6262549;28;20059;-60
2022/05/13 01:49:37;;;;;;;15.05;7.35;;;;;;;;;;6259654;28;20040;-60
2022/05/13 01:52:37;;;;;;;14.80;6.57;;;;;;;;;;6256101;28;20053;-58
2022/05/13 01:55:42;;;;;;;14.00;6.40;;;;;;;;;;6258695;28;20164;-59
2022/05/13 01:58:43;;;;;;;14.32;6.40;;;;;;;;;;6258678;28;20538;-61
2022/05/13 02:01:43;;;;;;;15.57;6.38;;;;;;;;;;6265095;28;20049;-60
2022/05/13 02:04:44;;;;;;;18.48;7.47;;;;;;;;;;6261430;28;20149;-59
2022/05/13 02:07:46;;;;;;;13.90;6.00;;;;;;;;;;6258803;28;20090;-59
2022/05/13 02:10:47;;;;;;;13.80;6.72;;;;;;;;;;6258561;28;20454;-59
2022/05/13 02:13:49;;;;;;;13.70;6.63;;;;;;;;;;6261689;28;20053;-59
2022/05/13 02:16:50;;;;;;;18.52;6.65;;;;;;;;;;6264536;28;20139;-60
2022/05/13 02:19:51;;;;;;;15.80;6.40;;;;;;;;;;6261630;28;20051;-59
2022/05/13 02:22:52;;;;;;;20.58;7.43;;;;;;;;;;6257564;28;20049;-58
2022/05/13 02:26:05;;;;;;;22.08;8.68;;;;;;;;;;6263299;28;20071;-58
2022/05/13 02:29:06;;;;;;;16.40;7.70;;;;;;;;;;6258832;28;20053;-60
2022/05/13 02:32:07;;;;;;;18.50;7.65;;;;;;;;;;6262851;28;20466;-59
2022/05/13 02:35:08;;;;;;;17.35;8.75;;;;;;;;;;6258986;28;20102;-60
2022/05/13 02:38:12;;;;;;;26.35;7.72;;;;;;;;;;6255374;28;20167;-60
2022/05/13 02:41:12;;;;;;;17.73;7.85;;;;;;;;;;6257073;28;20553;-59
2022/05/13 02:44:14;;;;;;;18.10;8.13;;;;;;;;;;6254559;28;20127;-59
2022/05/13 02:47:15;;;;;;;18.92;7.40;;;;;;;;;;6263523;28;20131;-58
2022/05/13 02:50:19;;;;;;;;;;;;;;;;;;6259130;28;20052;-60
2022/05/13 02:53:20;;;;;;;16.58;6.70;;;;;;;;;;6263483;28;20409;-59
2022/05/13 02:56:21;;;;;;;15.32;6.53;;;;;;;;;;6260423;28;20128;-59
2022/05/13 02:59:22;;;;;;;17.40;6.95;;;;;;;;;;6260735;28;20048;-60
2022/05/13 03:02:23;;;;;;;21.45;7.45;;;;;;;;;;6259171;28;20124;-59
2022/05/13 03:05:24;;;;;;;16.52;7.00;;;;;;;;;;6258476;28;20055;-60
2022/05/13 03:08:25;;;;;;;20.23;7.63;;;;;;;;;;6254412;28;20048;-60
2022/05/13 03:11:26;;;;;;;13.98;7.13;;;;;;;;;;6263520;28;20385;-59
2022/05/13 03:14:26;;;;;;;11.27;6.28;;;;;;;;;;6261535;28;20389;-57
2022/05/13 03:17:28;;;;;;;19.42;7.10;;;;;;;;;;6258895;28;20053;-58
2022/05/13 03:20:29;;;;;;;16.67;7.22;;;;;;;;;;6258491;28;20084;-59
2022/05/13 03:23:30;;;;;;;17.38;7.72;;;;;;;;;;6260142;28;20052;-59
2022/05/13 03:26:30;;;;;;;17.50;8.98;;;;;;;;;;6262606;28;20049;-56
2022/05/13 03:29:31;;;;;;;16.90;7.70;;;;;;;;;;6255168;28;20501;-60
2022/05/13 03:32:31;;;;;;;15.93;7.35;;;;;;;;;;6257603;28;20095;-59
2022/05/13 03:35:32;;;;;;;19.02;7.95;;;;;;;;;;6258182;28;20136;-60
2022/05/13 03:38:33;;;;;;;15.25;7.50;;;;;;;;;;6261283;28;20045;-58
2022/05/13 03:41:34;;;;;;;14.35;7.00;;;;;;;;;;6261322;28;20482;-59
2022/05/13 03:44:36;;;;;;;17.23;8.20;;;;;;;;;;6258478;28;20076;-59
2022/05/13 03:47:37;;;;;;;;;;;;;;;;;;6250077;28;20116;-58
2022/05/13 03:50:41;;;;;;;14.07;7.25;;;;;;;;;;6243123;28;20327;-58
2022/05/13 03:53:41;;;;;;;17.00;7.78;;;;;;;;;;6245017;28;20053;-59
2022/05/13 03:56:42;;;;;;;16.65;8.10;;;;;;;;;;6252919;28;20518;-56
2022/05/13 03:59:42;;;;;;;16.05;7.65;;;;;;;;;;6287168;28;20045;-59
2022/05/13 04:02:43;;;;;;;15.18;7.30;;;;;;;;;;6259783;28;20057;-57
2022/05/13 04:09:14;;;;;;;19.67;7.25;;;;;;;;;;6239223;28;20041;-58
2022/05/13 04:18:53;;;;;;;16.10;7.30;;;;;;;;;;6251979;28;20038;-60
2022/05/13 04:21:54;;;;;;;18.17;6.97;;;;;;;;;;6241964;28;20128;-60
2022/05/13 04:24:54;;;;;;;15.50;7.25;;;;;;;;;;6248101;28;20182;-58
2022/05/13 04:27:56;;;;;;;15.32;7.32;;;;;;;;;;6260051;28;20585;-59
2022/05/13 04:31:00;;;;;;;18.20;7.28;;;;;;;;;;6264555;28;20041;-59
2022/05/13 04:34:01;;;;;;;16.08;7.53;;;;;;;;;;6265728;28;20079;-58
2022/05/13 04:37:03;;;;;;;16.95;7.68;;;;;;;;;;6259494;28;20052;-56
2022/05/13 04:40:04;;;;;;;18.03;7.47;;;;;;;;;;6260370;28;20077;-58
2022/05/13 04:43:06;;;;;;;16.63;7.45;;;;;;;;;;6262661;28;20049;-59
2022/05/13 04:46:06;;;;;;;23.17;8.02;;;;;;;;;;6258707;28;20131;-58
2022/05/13 04:49:07;;;;;;;17.92;7.10;;;;;;;;;;6260033;28;20392;-59
2022/05/13 04:52:09;;;;;;;;;;;;;;;;;;6261668;28;20832;-59
2022/05/13 04:55:10;;;;;;;13.32;6.43;;;;;;;;;;6265484;28;19920;-58
2022/05/13 04:58:10;;;;;;;15.68;6.82;;;;;;;;;;6262015;28;20049;-56
2022/05/13 05:01:12;;;;;;;16.58;7.55;;;;;;;;;;6260950;28;20458;-59
2022/05/13 05:04:13;;;;;;;;;;;;;;;;;;6261322;28;20056;-55
2022/05/13 05:07:13;;;;;;;17.38;6.75;;;;;;;;;;6258759;28;19956;-58
2022/05/13 05:10:14;;;;;;;14.50;7.00;;;;;;;;;;6259104;28;20430;-58
2022/05/13 05:13:20;;;;;;;;;;;;;;;;;;6263549;28;20059;-59
2022/05/13 05:16:22;;;;;;;13.98;7.30;;;;;;;;;;6267510;28;19967;-57
2022/05/13 05:19:23;;;;;;;13.75;7.22;;;;;;;;;;6260207;28;20044;-57
2022/05/13 05:22:24;;;;;;;20.48;8.15;;;;;;;;;;6268804;28;20052;-59
2022/05/13 05:25:28;;;;;;;18.88;7.82;;;;;;;;;;6260494;28;20648;-56
2022/05/13 05:28:29;;;;;;;24.58;8.13;;;;;;;;;;6262681;28;20052;-56
2022/05/13 05:31:30;;;;;;;20.40;8.00;;;;;;;;;;6268527;28;20552;-55
2022/05/13 05:34:31;;;;;;;16.30;7.45;;;;;;;;;;6259106;28;20045;-58
2022/05/13 05:37:32;;;;;;;16.63;7.82;;;;;;;;;;6265314;28;20524;-57
2022/05/13 05:40:35;;;;;;;23.42;8.10;;;;;;;;;;6261055;28;20191;-59
2022/05/13 05:43:37;;;;;;;16.17;7.40;;;;;;;;;;6265660;28;20047;-60
2022/05/13 05:46:38;;;;;;;;;;;;;;;;;;6241247;28;20163;-60
2022/05/13 05:49:40;;;;;;;17.73;7.82;;;;;;;;;;6250583;28;19925;-60
2022/05/13 05:52:41;;;;;;;14.75;7.05;;;;;;;;;;6262997;28;20048;-56
2022/05/13 05:59:01;;;;;;;21.25;8.65;;;;;;;;;;6267214;28;20040;-59
2022/05/13 06:02:02;;;;;;;15.77;8.15;;;;;;;;;;6267305;28;20087;-59
2022/05/13 06:05:03;;;;;;;20.52;8.77;;;;;;;;;;6268185;28;20071;-60
2022/05/13 06:08:05;;;;;;;20.08;9.48;;;;;;;;;;6261036;28;20049;-58
2022/05/13 06:11:05;;;;;;;;;;;;;;;;;;6247281;28;20057;-59
2022/05/13 06:14:08;;;;;;;22.50;10.02;;;;;;;;;;6248403;28;20024;-60
2022/05/13 06:17:09;;;;;;;17.38;9.10;;;;;;;;;;6242212;28;20081;-59
2022/05/13 06:20:11;;;;;;;23.02;9.10;;;;;;;;;;6247518;28;20047;-60
2022/05/13 06:23:12;;;;;;;16.23;8.13;;;;;;;;;;6242567;28;20168;-59
2022/05/13 06:26:12;;;;;;;13.88;8.13;;;;;;;;;;6247273;28;20053;-59
2022/05/13 06:29:14;;;;;;;13.90;7.72;;;;;;;;;;6247079;28;20053;-58
2022/05/13 06:32:15;;;;;;;14.02;8.13;;;;;;;;;;6261721;28;20099;-59
2022/05/13 06:35:16;;;;;;;18.17;9.25;;;;;;;;;;6261250;28;20484;-58
2022/05/13 06:38:20;;;;;;;22.13;9.52;;;;;;;;;;6266165;28;20503;-58
2022/05/13 06:41:21;;;;;;;18.00;8.65;;;;;;;;;;6254292;28;20077;-56
2022/05/13 06:44:21;;;;;;;17.55;9.23;;;;;;;;;;6261585;28;20078;-59
2022/05/13 06:47:22;;;;;;;23.23;9.00;;;;;;;;;;6264498;28;20053;-59
2022/05/13 06:50:23;;;;;;;17.30;8.57;;;;;;;;;;6261558;28;20151;-59
2022/05/13 06:53:24;;;;;;;20.92;8.50;;;;;;;;;;6264422;28;20044;-59
2022/05/13 06:56:24;;;;;;;17.05;8.65;;;;;;;;;;6258651;28;20135;-60
2022/05/13 06:59:25;;;;;;;19.25;8.80;;;;;;;;;;6263829;28;20497;-60
2022/05/13 07:02:27;;;;;;;18.07;8.50;;;;;;;;;;6262335;28;20128;-59
2022/05/13 07:05:28;;;;;;;;;;;;;;;;;;6259612;28;20053;-58
2022/05/13 07:08:31;;;;;;;15.90;7.50;;;;;;;;;;6257477;28;20956;-59
2022/05/13 07:11:33;;;;;;;13.88;7.22;;;;;;;;;;6241468;28;20077;-60
2022/05/13 07:14:34;;;;;;;15.68;6.55;;;;;;;;;;6242759;28;20048;-59
2022/05/13 07:17:35;;;;;;;17.58;6.88;;;;;;;;;;6253208;28;20041;-60
2022/05/13 07:20:36;;;;;;;13.60;7.17;;;;;;;;;;6254007;28;20044;-59
2022/05/13 07:23:36;;;;;;;11.75;6.60;;;;;;;;;;6254822;28;20064;-60
2022/05/13 07:26:37;;;;;;;12.73;6.50;;;;;;;;;;6251284;28;22852;-58
2022/05/13 07:29:38;;;;;;;16.20;6.97;;;;;;;;;;6257210;28;20060;-60
2022/05/13 07:32:38;;;;;;;21.77;7.00;;;;;;;;;;6263530;28;20610;-59
2022/05/13 07:35:40;;;;;;;16.23;7.90;;;;;;;;;;6263998;28;20045;-59
2022/05/13 07:41:16;;;;;;;18.93;8.10;;;;;;;;;;6254476;28;20438;-59
2022/05/13 07:42:01;;;;;;;11.45;6.47;;;;;;;;;;6254019;28;20294;-59
2022/05/13 07:45:02;;;;;;;14.37;6.00;;;;;;;;;;6254792;28;20187;-60
2022/05/13 07:48:03;;;;;;;17.35;7.32;;;;;;;;;;6257291;28;20084;-61
2022/05/13 07:51:04;;;;;;;14.43;7.63;;;;;;;;;;6257500;28;20082;-60
2022/05/13 07:54:05;;;;;;;16.47;7.93;;;;;;;;;;6254792;28;20049;-58
2022/05/13 07:57:05;;;;;;;13.90;8.20;;;;;;;;;;6256616;28;20084;-59
2022/05/13 08:00:32;;;;;;;14.30;8.27;;;;;;;;;;6262071;28;22367;-62
2022/05/13 08:03:32;;;;;;;22.27;8.05;;;;;;;;;;6261516;28;20045;-60
2022/05/13 08:06:33;;;;;;;16.53;8.37;;;;;;;;;;6262071;28;20472;-59
2022/05/13 08:09:33;;;;;;;14.10;7.50;;;;;;;;;;6259052;28;20384;-59
2022/05/13 08:12:34;;;;;;;14.93;7.87;;;;;;;;;;6260666;28;20056;-61
2022/05/13 08:15:35;;;;;;;13.47;7.00;;;;;;;;;;6258989;28;20136;-60
2022/05/13 08:18:37;;;;;;;14.43;7.40;;;;;;;;;;6258526;28;20049;-60
2022/05/13 08:21:37;;;;;;;12.65;7.35;;;;;;;;;;6261246;28;20049;-60
2022/05/13 08:24:38;;;;;;;16.33;6.83;;;;;;;;;;6262651;28;20415;-59
2022/05/13 08:27:39;;;;;;;15.77;7.50;;;;;;;;;;6262887;28;20083;-58
2022/05/13 08:30:40;;;;;;;11.65;6.75;;;;;;;;;;6267299;28;20053;-59
2022/05/13 08:33:41;;;;;;;14.95;7.65;;;;;;;;;;6264823;28;20182;-60
2022/05/13 08:36:43;;;;;;;17.27;8.07;;;;;;;;;;6267529;28;20049;-57
2022/05/13 08:39:43;;;;;;;19.73;9.43;;;;;;;;;;6267714;28;20095;-59
2022/05/13 08:42:46;;;;;;;17.37;8.17;;;;;;;;;;6270203;28;20048;-56
2022/05/13 08:45:55;;;;;;;17.27;8.52;;;;;;;;;;6270353;28;20132;-60
2022/05/13 08:49:33;;;;;;;14.18;7.35;;;;;;;;;;6262263;28;21395;-59
2022/05/13 08:53:31;;;;;;;15.10;8.60;;;;;;;;;;6260573;28;20048;-59
2022/05/13 08:56:32;;;;;;;17.67;8.80;;;;;;;;;;6215745;28;20084;-58
2022/05/13 08:59:57;;;;;;;13.57;7.63;;;;;;;;;;6215168;28;20073;-60
2022/05/13 09:03:10;;;;;;;13.25;7.38;;;;;;;;;;6256464;28;20741;-57
2022/05/13 09:06:16;;;;;;;14.00;6.40;;;;;;;;;;6255133;28;20496;-59
2022/05/13 09:09:17;;;;;;;14.55;6.38;;;;;;;;;;6260914;28;20407;-58
2022/05/13 09:12:21;;;;;;;16.37;6.27;;;;;;;;;;6257977;28;20131;-59
2022/05/13 09:15:42;;;;;;;13.73;5.40;;;;;;;;;;6261759;28;20076;-59
2022/05/13 09:18:56;;;;;;;16.67;5.43;;;;;;;;;;6262559;28;20057;-59
2022/05/13 09:21:57;;;;;;;14.50;5.57;;;;;;;;;;6257522;28;20084;-60
2022/05/13 09:24:57;;;;;;;12.67;4.87;;;;;;;;;;6255118;28;20064;-59
2022/05/13 09:28:09;;;;;;;13.30;5.37;;;;;;;;;;6255649;28;20492;-58
2022/05/13 09:31:19;;;;;;;11.32;5.28;;;;;;;;;;6254498;28;20057;-59
2022/05/13 09:34:46;;;;;;;9.15;4.75;;;;;;;;;;6259047;28;20065;-59
2022/05/13 09:37:46;;;;;;;9.45;4.50;;;;;;;;;;6266907;28;20570;-59
2022/05/13 09:41:01;;;;;;;9.27;4.67;;;;;;;;;;6257170;28;20068;-59
2022/05/13 09:44:13;;;;;;;11.95;4.45;;;;;;;;;;6250362;28;20136;-58
2022/05/13 09:47:24;;;;;;;8.93;4.35;;;;;;;;;;6242420;28;20057;-60
2022/05/13 09:50:29;;;;;;;9.52;4.38;;;;;;;;;;6246625;28;20045;-59
2022/05/13 09:53:32;;;;;;;11.30;4.75;;;;;;;;;;6245361;28;20481;-58
2022/05/13 09:56:35;;;;;;;9.20;4.03;;;;;;;;;;6243036;28;20053;-59
2022/05/13 09:59:45;;;;;;;8.45;4.10;;;;;;;;;;6256941;28;20143;-59
2022/05/13 10:02:48;;;;;;;8.60;3.80;;;;;;;;;;6267494;28;20506;-59
2022/05/13 10:06:17;;;;;;;9.80;4.10;;;;;;;;;;6262487;28;20390;-59
2022/05/13 10:16:16;;;;;;;10.75;3.53;;;;;;;;;;6259690;28;20574;-59
2022/05/13 10:19:25;;;;;;;6.43;2.50;;;;;;;;;;6261468;28;20045;-59
2022/05/13 10:22:54;;;;;;;10.10;3.00;;;;;;;;;;6258787;28;20051;-58
2022/05/13 10:26:08;;;;;;;5.72;3.03;;;;;;;;;;6247669;28;20104;-60
2022/05/13 10:29:30;;;;;;;7.03;3.03;;;;;;;;;;6257266;28;20467;-59
2022/05/13 10:32:58;;;;;;;8.88;3.25;;;;;;;;;;6248007;28;20076;-59
2022/05/13 10:36:02;;;;;;;8.63;3.45;;;;;;;;;;6243413;28;20049;-58
2022/05/13 10:39:10;;;;;;;8.98;3.10;;;;;;;;;;6244833;28;20065;-59
2022/05/13 10:42:25;;;;;;;18.77;3.47;;;;;;;;;;6241869;28;20554;-58
2022/05/13 10:45:30;;;;;;;7.80;3.10;;;;;;;;;;6245323;28;20148;-58
2022/05/13 10:48:31;;;;;;;6.70;2.80;;;;;;;;;;6258798;28;20502;-55
2022/05/13 10:51:42;;;;;;;7.40;3.07;;;;;;;;;;6260717;28;20151;-56
2022/05/13 10:54:51;;;;;;;9.60;2.70;;;;;;;;;;6262044;28;20654;-59
2022/05/13 10:58:19;;;;;;;5.80;3.00;;;;;;;;;;6268284;28;20106;-58
2022/05/13 11:01:40;;;;;;;9.18;2.70;;;;;;;;;;6259114;28;20045;-59
2022/05/13 11:04:49;;;;;;;6.03;2.90;;;;;;;;;;6261899;28;20480;-60
2022/05/13 11:07:49;;;;;;;5.80;2.50;;;;;;;;;;6260134;28;20059;-59
2022/05/13 11:11:20;;;;;;;8.03;3.10;;;;;;;;;;6258800;28;20041;-59
2022/05/13 11:15:10;;;;;;;6.85;3.05;;;;;;;;;;6263817;28;20488;-60
2022/05/13 11:18:30;;;;;;;8.18;3.13;;;;;;;;;;6252985;28;20159;-61
2022/05/13 11:22:01;;;;;;;7.70;3.10;;;;;;;;;;6261235;28;20068;-60
2022/05/13 11:29:07;;;;;;;7.65;3.17;;;;;;;;;;6251799;28;20110;-59
2022/05/13 11:32:22;;;;;;;8.43;2.92;;;;;;;;;;6259425;28;20055;-57
2022/05/13 11:35:38;;;;;;;8.65;3.20;;;;;;;;;;6262338;28;20041;-57
2022/05/13 11:39:10;;;;;;;6.07;3.08;;;;;;;;;;6271346;28;20106;-60
2022/05/13 11:42:24;;;;;;;;;;;;;;;;;;6257632;28;20084;-59
2022/05/13 11:45:37;;;;;;;9.80;3.38;;;;;;;;;;6267793;28;20347;-60
2022/05/13 11:48:43;;;;;;;7.22;2.92;;;;;;;;;;6265879;28;20144;-58
2022/05/13 11:51:44;;;;;;;8.18;3.40;;;;;;;;;;6263184;28;20044;-59
2022/05/13 11:54:44;;;;;;;5.97;3.33;;;;;;;;;;6267082;28;20579;-59
2022/05/13 11:57:50;;;;;;;8.10;3.33;;;;;;;;;;6266843;28;20052;-58
2022/05/13 12:00:51;;;;;;;8.48;3.38;;;;;;;;;;6261464;28;20086;-59
2022/05/13 12:04:20;;;;;;;7.07;2.93;;;;;;;;;;6268584;28;20135;-58
2022/05/13 12:08:07;;;;;;;8.02;3.08;;;;;;;;;;6266757;28;20053;-60
2022/05/13 12:11:26;;;;;;;7.57;3.33;;;;;;;;;;6258596;28;20069;-59
2022/05/13 12:15:03;;;;;;;8.40;3.17;;;;;;;;;;6263008;28;20123;-57
2022/05/13 12:18:20;;;;;;;7.85;3.85;;;;;;;;;;6261610;28;20452;-58
2022/05/13 12:21:43;;;;;;;7.20;3.13;;;;;;;;;;6260323;28;20045;-60
2022/05/13 12:24:58;;;;;;;7.28;3.20;;;;;;;;;;6259672;28;20045;-58
2022/05/13 12:28:02;;;;;;;10.65;3.60;;;;;;;;;;6259369;28;20048;-56
2022/05/13 12:31:32;;;;;;;11.95;3.13;;;;;;;;;;6262797;28;20507;-58
2022/05/13 12:38:06;;;;;;;8.23;3.35;;;;;;;;;;6247157;28;20535;-59
2022/05/13 12:41:22;;;;;;;7.85;3.28;;;;;;;;;;6251202;28;20049;-60
2022/05/13 12:44:58;;;;;;;8.70;3.40;;;;;;;;;;6248287;28;20132;-59
2022/05/13 12:48:04;;;;;;;11.43;3.67;;;;;;;;;;6252501;28;20099;-60
2022/05/13 12:51:11;;;;;;;6.43;3.33;;;;;;;;;;6265605;28;20053;-60
2022/05/13 12:54:17;;;;;;;8.88;3.30;;;;;;;;;;6258834;28;20455;-59
2022/05/13 12:57:39;;;;;;;10.57;4.07;;;;;;;;;;6268216;28;20412;-59
2022/05/13 13:00:42;;;;;;;12.10;3.80;;;;;;;;;;6259665;28;20053;-58
2022/05/13 13:03:48;;;;;;;10.52;4.05;;;;;;;;;;6264330;28;20052;-59
2022/05/13 13:06:51;;;;;;;10.73;4.45;;;;;;;;;;6265023;28;20045;-59
2022/05/13 13:09:52;;;;;;;11.27;4.72;;;;;;;;;;6260752;28;20068;-58
2022/05/13 13:13:16;;;;;;;6.88;4.07;;;;;;;;;;6262541;28;20053;-58
2022/05/13 13:16:26;;;;;;;6.00;4.03;;;;;;;;;;6259100;28;20052;-59
2022/05/13 13:19:29;;;;;;;8.98;3.92;;;;;;;;;;6263300;28;20072;-60
2022/05/13 13:22:39;;;;;;;8.52;4.55;;;;;;;;;;6262835;28;20077;-60
2022/05/13 13:25:44;;;;;;;6.68;3.95;;;;;;;;;;6257219;28;20048;-59
2022/05/13 13:28:52;;;;;;;11.18;3.67;;;;;;;;;;6265651;28;20049;-59
2022/05/13 13:31:53;;;;;;;7.38;3.20;;;;;;;;;;6264094;28;20095;-59
2022/05/13 13:35:03;;;;;;;8.43;3.38;;;;;;;;;;6265525;28;20048;-58
2022/05/13 13:38:08;;;;;;;8.88;2.97;;;;;;;;;;6269465;28;20049;-58
2022/05/13 13:41:08;;;;;;;6.65;2.80;;;;;;;;;;6257936;28;20049;-58
2022/05/13 13:44:09;;;;;;;7.87;3.50;;;;;;;;;;6265656;28;20157;-58
2022/05/13 13:47:27;;;;;;;9.73;3.07;;;;;;;;;;6254485;28;20040;-58
2022/05/13 13:50:30;;;;;;;6.50;3.28;;;;;;;;;;6261108;28;20503;-58
2022/05/13 13:53:34;;;;;;;8.68;3.72;;;;;;;;;;6264183;28;20053;-57
2022/05/13 13:56:42;;;;;;;6.80;3.45;;;;;;;;;;6263405;28;20423;-60
2022/05/13 14:00:05;;;;;;;8.13;3.72;;;;;;;;;;6262313;28;20068;-60
2022/05/13 14:03:21;;;;;;;10.43;3.60;;;;;;;;;;6268847;28;20519;-57
2022/05/13 14:06:23;;;;;;;5.47;3.00;;;;;;;;;;6258164;28;20250;-58
2022/05/13 14:09:31;;;;;;;6.93;3.47;;;;;;;;;;6259665;28;20071;-60
2022/05/13 14:12:31;;;;;;;5.45;3.00;;;;;;;;;;6242896;28;20073;-59
2022/05/13 14:15:38;;;;;;;7.73;3.33;;;;;;;;;;6250182;28;21041;-56
2022/05/13 14:18:39;;;;;;;5.22;3.15;;;;;;;;;;6250821;28;20049;-58
2022/05/13 14:21:50;;;;;;;9.75;3.28;;;;;;;;;;6245914;28;20041;-58
2022/05/13 14:25:04;;;;;;;9.05;3.38;;;;;;;;;;6242532;28;20143;-58
2022/05/13 14:28:07;;;;;;;7.18;3.25;;;;;;;;;;6242739;28;20041;-59
2022/05/13 14:31:11;;;;;;;11.27;3.63;;;;;;;;;;6241472;28;20706;-57
2022/05/13 14:34:15;;;;;;;10.18;3.25;;;;;;;;;;6241273;28;20052;-58
2022/05/13 14:37:34;;;;;;;10.73;3.10;;;;;;;;;;6249162;28;20087;-59
2022/05/13 14:40:42;;;;;;;7.55;3.22;;;;;;;;;;6243282;28;20045;-56
2022/05/13 14:43:43;;;;;;;4.90;3.20;;;;;;;;;;6249779;28;20139;-57
2022/05/13 14:46:58;;;;;;;8.93;3.30;;;;;;;;;;6245102;28;20105;-58
2022/05/13 14:50:13;;;;;;;6.80;3.40;;;;;;;;;;6243525;28;20159;-57
2022/05/13 14:53:17;;;;;;;9.57;3.47;;;;;;;;;;6244419;28;20080;-58
2022/05/13 14:56:18;;;;;;;5.75;3.05;;;;;;;;;;6248296;28;20144;-57
2022/05/13 14:59:29;;;;;;;5.18;3.40;;;;;;;;;;6247973;28;21894;-55
2022/05/13 15:02:33;;;;;;;7.80;3.60;;;;;;;;;;6239296;28;20139;-55
2022/05/13 15:05:34;;;;;;;7.43;3.28;;;;;;;;;;6239024;28;20132;-57
2022/05/13 15:08:57;;;;;;;7.57;3.13;;;;;;;;;;6243659;28;20063;-58
2022/05/13 15:12:02;;;;;;;8.48;3.55;;;;;;;;;;6237127;28;20049;-57
2022/05/13 15:15:05;;;;;;;12.98;3.40;;;;;;;;;;6243944;28;20506;-58
2022/05/13 15:18:10;;;;;;;9.85;3.00;;;;;;;;;;6245036;28;20044;-58
2022/05/13 15:21:11;;;;;;;5.20;2.75;;;;;;;;;;6240461;28;20191;-58
2022/05/13 15:24:11;;;;;;;4.77;2.80;;;;;;;;;;6240392;28;20053;-58
2022/05/13 15:27:20;;;;;;;8.10;3.33;;;;;;;;;;6250436;28;20112;-57
2022/05/13 15:30:21;;;;;;;4.45;3.13;;;;;;;;;;6235088;28;20055;-57
2022/05/13 15:33:23;;;;;;;5.93;2.97;;;;;;;;;;6246787;28;20617;-60
2022/05/13 15:36:27;;;;;;;8.10;2.92;;;;;;;;;;6243453;28;20072;-58
2022/05/13 15:39:27;;;;;;;5.75;3.15;;;;;;;;;;6247383;28;20482;-60
2022/05/13 15:42:28;;;;;;;6.80;3.10;;;;;;;;;;6240774;28;20056;-59
2022/05/13 15:45:31;;;;;;;7.10;2.70;;;;;;;;;;6242962;28;20060;-56
2022/05/13 15:48:32;;;;;;;5.30;2.83;;;;;;;;;;6242167;28;20041;-57
2022/05/13 15:54:51;;;;;;;4.90;2.88;;;;;;;;;;6243648;28;20044;-60
2022/05/13 15:57:57;;;;;;;5.93;2.90;;;;;;;;;;6240025;28;20063;-59
2022/05/13 16:00:58;;;;;;;8.90;3.03;;;;;;;;;;6238021;28;20125;-56
2022/05/13 16:03:59;;;;;;;6.00;2.67;;;;;;;;;;6236022;28;20045;-57
2022/05/13 16:07:00;;;;;;;6.03;3.00;;;;;;;;;;6243569;28;20347;-59
2022/05/13 16:10:03;;;;;;;6.95;2.88;;;;;;;;;;6236074;28;20193;-58
2022/05/13 16:13:07;;;;;;;10.18;3.90;;;;;;;;;;6241714;28;20053;-57
2022/05/13 16:16:12;;;;;;;9.65;2.80;;;;;;;;;;6241905;28;20069;-57
2022/05/13 16:19:17;;;;;;;7.63;3.13;;;;;;;;;;6246388;28;20057;-59
2022/05/13 16:22:20;;;;;;;9.00;2.92;;;;;;;;;;6245150;28;20163;-57
2022/05/13 16:25:24;;;;;;;9.70;2.83;;;;;;;;;;6247896;28;20053;-59
2022/05/13 16:28:25;;;;;;;8.82;2.90;;;;;;;;;;6272571;28;20144;-55
2022/05/13 16:31:28;;;;;;;9.47;2.73;;;;;;;;;;6243459;28;20243;-56
2022/05/13 16:34:29;;;;;;;6.50;2.70;;;;;;;;;;6243464;28;20167;-56
2022/05/13 16:37:42;;;;;;;6.43;2.50;;;;;;;;;;6242774;28;20829;-54
2022/05/13 16:40:43;;;;;;;7.13;2.65;;;;;;;;;;6257026;28;20076;-56
2022/05/13 16:43:45;;;;;;;6.85;3.17;;;;;;;;;;6258032;28;20056;-57
2022/05/13 16:46:45;;;;;;;8.73;3.63;;;;;;;;;;6251155;28;20092;-57
2022/05/13 16:49:46;;;;;;;5.63;3.20;;;;;;;;;;6256989;28;21002;-56
2022/05/13 16:52:47;;;;;;;5.20;3.03;;;;;;;;;;6247081;28;20049;-55
2022/05/13 16:55:49;;;;;;;7.00;3.20;;;;;;;;;;6247281;28;20127;-56
2022/05/13 16:58:49;;;;;;;6.97;3.10;;;;;;;;;;6252605;28;20091;-58
2022/05/13 17:01:50;;;;;;;5.63;3.27;;;;;;;;;;6251823;28;20053;-57
2022/05/13 17:04:50;;;;;;;9.77;3.20;;;;;;;;;;6257410;28;20513;-57
2022/05/13 17:07:51;;;;;;;4.83;2.90;;;;;;;;;;6255963;28;20142;-56
2022/05/13 17:17:30;;;;;;;9.05;3.35;;;;;;;;;;6253357;28;20072;-54
2022/05/13 17:20:31;;;;;;;7.80;3.63;;;;;;;;;;6254153;28;20506;-58
2022/05/13 17:23:32;;;;;;;8.82;3.75;;;;;;;;;;6251495;28;20045;-58
2022/05/13 17:26:33;;;;;;;7.60;3.37;;;;;;;;;;6250864;28;20159;-59
2022/05/13 17:29:35;;;;;;;7.82;3.45;;;;;;;;;;6251404;28;20057;-55
2022/05/13 17:32:38;;;;;;;7.88;4.05;;;;;;;;;;6253250;28;20056;-56
2022/05/13 17:35:39;;;;;;;7.47;3.63;;;;;;;;;;6255381;28;20179;-58
2022/05/13 17:38:40;;;;;;;6.60;3.47;;;;;;;;;;6249497;28;20540;-58
2022/05/13 17:41:43;;;;;;;7.03;3.67;;;;;;;;;;6253652;28;20497;-57
2022/05/13 17:44:44;;;;;;;9.15;3.85;;;;;;;;;;6254513;28;20060;-57
2022/05/13 17:47:45;;;;;;;8.00;3.47;;;;;;;;;;6255901;28;20059;-57
2022/05/13 17:50:48;;;;;;;7.38;3.70;;;;;;;;;;6251126;28;20078;-55
2022/05/13 17:53:48;;;;;;;9.82;4.18;;;;;;;;;;6251016;28;20462;-55
2022/05/13 17:56:49;;;;;;;8.90;3.80;;;;;;;;;;6255712;28;20055;-56
2022/05/13 17:59:50;;;;;;;8.07;3.90;;;;;;;;;;6255103;28;20428;-56
2022/05/13 18:02:50;;;;;;;5.20;3.47;;;;;;;;;;6252892;28;20080;-57
2022/05/13 18:05:51;;;;;;;7.87;4.00;;;;;;;;;;6256967;28;20511;-58
2022/05/13 18:08:52;;;;;;;5.77;3.60;;;;;;;;;;6255531;28;20538;-56
2022/05/13 18:11:53;;;;;;;9.27;3.90;;;;;;;;;;6254564;28;20053;-52
2022/05/13 18:14:53;;;;;;;9.53;4.07;;;;;;;;;;6254200;28;20149;-57
2022/05/13 18:17:54;;;;;;;7.57;4.33;;;;;;;;;;6252773;28;20059;-57
2022/05/13 18:20:55;;;;;;;7.37;4.37;;;;;;;;;;6252123;28;20057;-57
2022/05/13 18:23:55;;;;;;;8.63;4.20;;;;;;;;;;6255416;28;20503;-58
2022/05/13 18:26:56;;;;;;;7.40;4.60;;;;;;;;;;6252531;28;20075;-59
2022/05/13 18:29:57;;;;;;;8.63;4.50;;;;;;;;;;6253627;28;20191;-58
2022/05/13 18:32:57;;;;;;;10.17;5.03;;;;;;;;;;6253345;28;20210;-59
2022/05/13 18:35:59;;;;;;;11.53;5.43;;;;;;;;;;6253491;28;20102;-58
2022/05/13 18:38:59;;;;;;;11.70;5.93;;;;;;;;;;6253499;28;20051;-59
2022/05/13 18:48:40;;;;;;;10.95;5.95;;;;;;;;;;6253656;28;20489;-56
2022/05/13 18:51:41;;;;;;;;;;;;;;;;;;6250305;28;20494;-59
2022/05/13 18:54:42;;;;;;;13.00;5.80;;;;;;;;;;6252704;28;21297;-57
2022/05/13 18:57:42;;;;;;;10.97;5.47;;;;;;;;;;6251245;28;20064;-58
2022/05/13 19:00:43;;;;;;;13.13;5.67;;;;;;;;;;6245804;28;20455;-58
2022/05/13 19:03:43;;;;;;;11.97;4.80;;;;;;;;;;6249439;28;20495;-58
2022/05/13 19:06:45;;;;;;;9.77;4.27;;;;;;;;;;6251430;28;20053;-59
2022/05/13 19:09:46;;;;;;;;;;;;;;;;;;6254414;28;20044;-58